createdAt,value
2018-08-27T00:00:44.297Z,15.10
2018-08-27T00:03:11.367Z,15.18
2018-08-27T00:05:38.447Z,15.18
2018-08-27T00:08:05.483Z,15.23
2018-08-27T00:10:32.503Z,15.10
2018-08-27T00:12:59.537Z,15.08
2018-08-27T00:15:27.131Z,15.07
2018-08-27T00:17:54.156Z,15.13
2018-08-27T00:20:21.142Z,15.14
2018-08-27T00:22:48.155Z,15.22
2018-08-27T00:25:15.168Z,15.23
2018-08-27T00:27:42.161Z,15.18
2018-08-27T00:30:09.464Z,15.11
2018-08-27T00:32:36.529Z,15.08
2018-08-27T00:35:03.596Z,15.01
2018-08-27T00:37:31.176Z,14.91
2018-08-27T00:39:58.259Z,14.96
2018-08-27T00:42:25.336Z,14.88
2018-08-27T00:44:52.660Z,14.81
2018-08-27T00:47:20.303Z,14.85
2018-08-27T00:49:47.287Z,14.87
2018-08-27T00:52:14.801Z,14.92
2018-08-27T00:54:41.824Z,14.94
2018-08-27T00:57:08.903Z,14.94
2018-08-27T00:59:35.979Z,14.85
2018-08-27T01:02:03.128Z,14.84
2018-08-27T01:04:30.123Z,14.88
2018-08-27T01:06:57.130Z,14.85
2018-08-27T01:09:24.120Z,14.73
2018-08-27T01:11:51.163Z,14.66
2018-08-27T01:14:18.554Z,14.64
2018-08-27T01:16:45.868Z,14.64
2018-08-27T01:19:12.878Z,14.62
2018-08-27T01:21:39.864Z,14.60
2018-08-27T01:24:06.848Z,14.61
2018-08-27T01:26:33.897Z,14.55
2018-08-27T01:29:00.873Z,14.60
2018-08-27T01:31:28.187Z,14.66
2018-08-27T01:33:55.180Z,14.68
2018-08-27T01:36:22.256Z,14.70
2018-08-27T01:38:49.331Z,14.73
2018-08-27T01:41:16.897Z,14.71
2018-08-27T01:43:43.924Z,14.77
2018-08-27T01:46:10.931Z,14.79
2018-08-27T01:48:37.915Z,14.77
2018-08-27T01:51:05.263Z,14.87
2018-08-27T01:53:32.277Z,14.72
2018-08-27T01:55:59.367Z,14.69
2018-08-27T01:58:26.927Z,14.60
2018-08-27T02:00:53.899Z,14.60
2018-08-27T02:03:20.883Z,14.50
2018-08-27T02:05:48.404Z,14.46
2018-08-27T02:08:15.567Z,14.38
2018-08-27T02:10:42.543Z,14.36
2018-08-27T02:13:09.592Z,14.37
2018-08-27T02:15:36.583Z,14.36
2018-08-27T02:18:03.737Z,14.30
2018-08-27T02:20:30.732Z,14.31
2018-08-27T02:22:57.708Z,14.19
2018-08-27T02:25:25.072Z,14.21
2018-08-27T02:27:52.057Z,14.24
2018-08-27T02:30:19.048Z,14.19
2018-08-27T02:32:46.319Z,14.18
2018-08-27T02:35:13.353Z,14.20
2018-08-27T02:37:40.701Z,14.20
2018-08-27T02:40:07.728Z,14.21
2018-08-27T02:42:34.724Z,14.25
2018-08-27T02:45:01.756Z,14.21
2018-08-27T02:47:28.795Z,14.22
2018-08-27T02:49:55.758Z,14.24
2018-08-27T02:52:22.745Z,14.27
2018-08-27T02:54:49.756Z,14.30
2018-08-27T02:57:16.758Z,14.27
2018-08-27T02:59:43.739Z,14.28
2018-08-27T03:02:17.739Z,14.30
2018-08-27T03:04:44.720Z,14.33
2018-08-27T03:07:11.728Z,14.38
2018-08-27T03:09:38.996Z,14.40
2018-08-27T03:12:06.497Z,14.44
2018-08-27T03:14:33.524Z,14.51
2018-08-27T03:17:00.528Z,14.57
2018-08-27T03:19:27.515Z,14.64
2018-08-27T03:21:54.581Z,14.81
2018-08-27T03:24:21.668Z,14.83
2018-08-27T03:26:48.663Z,14.85
2018-08-27T03:29:15.647Z,14.86
2018-08-27T03:31:42.943Z,14.91
2018-08-27T03:34:09.931Z,14.90
2018-08-27T03:36:36.950Z,14.87
2018-08-27T03:39:07.317Z,14.86
2018-08-27T03:41:34.300Z,14.78
2018-08-27T03:44:01.572Z,14.73
2018-08-27T03:46:28.647Z,14.66
2018-08-27T03:48:55.643Z,14.66
2018-08-27T03:51:23.075Z,14.55
2018-08-27T03:53:50.077Z,14.37
2018-08-27T03:56:17.091Z,14.29
2018-08-27T03:58:44.087Z,14.26
2018-08-27T04:01:12.617Z,14.25
2018-08-27T04:03:41.017Z,14.28
2018-08-27T04:06:09.866Z,14.22
2018-08-27T04:08:38.247Z,14.16
2018-08-27T04:11:05.302Z,14.06
2018-08-27T04:13:32.388Z,13.95
2018-08-27T04:15:59.400Z,13.91
2018-08-27T04:18:26.396Z,13.82
2018-08-27T04:20:53.372Z,13.68
2018-08-27T04:23:20.738Z,13.62
2018-08-27T04:25:47.717Z,13.68
2018-08-27T04:28:14.725Z,13.68
2018-08-27T04:30:42.175Z,13.64
2018-08-27T04:33:09.257Z,13.64
2018-08-27T04:35:36.252Z,13.71
2018-08-27T04:38:03.265Z,13.62
2018-08-27T04:40:30.259Z,13.61
2018-08-27T04:42:57.325Z,13.52
2018-08-27T04:45:24.401Z,13.44
2018-08-27T04:47:51.404Z,13.40
2018-08-27T04:50:18.403Z,13.37
2018-08-27T04:52:45.520Z,12.96
2018-08-27T04:55:12.531Z,13.38
2018-08-27T04:57:39.533Z,13.40
2018-08-27T05:00:11.181Z,13.44
2018-08-27T05:02:38.191Z,13.49
2018-08-27T05:05:05.204Z,13.56
2018-08-27T05:07:32.444Z,13.59
2018-08-27T05:09:59.437Z,13.61
2018-08-27T05:12:26.443Z,13.66
2018-08-27T05:14:53.757Z,13.67
2018-08-27T05:17:20.887Z,13.73
2018-08-27T05:19:47.952Z,13.77
2018-08-27T05:22:15.114Z,13.79
2018-08-27T05:24:42.348Z,13.75
2018-08-27T05:27:09.339Z,13.77
2018-08-27T05:29:36.323Z,13.78
2018-08-27T05:32:03.328Z,13.70
2018-08-27T05:34:30.395Z,13.59
2018-08-27T05:36:58.202Z,13.51
2018-08-27T05:39:25.192Z,13.47
2018-08-27T05:41:52.260Z,13.46
2018-08-27T05:44:19.288Z,13.45
2018-08-27T05:46:46.241Z,13.52
2018-08-27T05:49:20.321Z,13.51
2018-08-27T05:51:47.313Z,13.52
2018-08-27T05:54:14.311Z,13.53
2018-08-27T05:56:41.320Z,13.56
2018-08-27T05:59:08.299Z,13.47
2018-08-27T06:01:35.472Z,13.35
2018-08-27T06:04:02.787Z,13.31
2018-08-27T06:06:29.761Z,13.21
2018-08-27T06:08:56.744Z,13.14
2018-08-27T06:11:24.232Z,13.05
2018-08-27T06:13:51.400Z,13.02
2018-08-27T06:16:18.468Z,13.04
2018-08-27T06:18:45.495Z,13.08
2018-08-27T06:21:12.463Z,13.10
2018-08-27T06:23:39.603Z,13.08
2018-08-27T06:26:06.683Z,13.08
2018-08-27T06:28:33.804Z,13.19
2018-08-27T06:31:01.113Z,13.29
2018-08-27T06:33:28.104Z,13.30
2018-08-27T06:35:55.200Z,13.41
2018-08-27T06:38:22.252Z,13.36
2018-08-27T06:40:49.343Z,13.41
2018-08-27T06:43:16.417Z,13.43
2018-08-27T06:45:43.423Z,13.48
2018-08-27T06:48:10.413Z,13.58
2018-08-27T06:50:37.420Z,13.56
2018-08-27T06:53:04.592Z,13.55
2018-08-27T06:55:31.992Z,13.60
2018-08-27T06:57:59.059Z,13.64
2018-08-27T07:00:26.039Z,13.68
2018-08-27T07:02:53.028Z,13.72
2018-08-27T07:05:20.032Z,13.78
2018-08-27T07:07:47.080Z,13.84
2018-08-27T07:10:14.019Z,13.95
2018-08-27T07:12:41.460Z,13.98
2018-08-27T07:15:09.392Z,14.01
2018-08-27T07:17:36.461Z,14.03
2018-08-27T07:20:04.915Z,14.18
2018-08-27T07:22:31.956Z,14.19
2018-08-27T07:24:59.041Z,14.20
2018-08-27T07:27:26.046Z,14.21
2018-08-27T07:29:53.076Z,14.28
2018-08-27T07:32:20.163Z,14.35
2018-08-27T07:34:47.271Z,14.39
2018-08-27T07:37:14.356Z,14.54
2018-08-27T07:39:42.346Z,14.59
2018-08-27T07:42:09.409Z,14.73
2018-08-27T07:44:36.436Z,14.83
2018-08-27T07:47:03.464Z,14.89
2018-08-27T07:49:31.424Z,14.92
2018-08-27T07:51:58.424Z,14.94
2018-08-27T07:54:25.679Z,14.99
2018-08-27T07:56:52.755Z,14.98
2018-08-27T07:59:19.796Z,14.90
2018-08-27T08:01:47.080Z,14.88
2018-08-27T08:04:14.076Z,14.85
2018-08-27T08:06:41.411Z,14.86
2018-08-27T08:09:10.188Z,14.86
2018-08-27T08:11:37.165Z,14.82
2018-08-27T08:14:04.241Z,14.86
2018-08-27T08:16:31.665Z,14.85
2018-08-27T08:18:58.641Z,14.85
2018-08-27T08:21:25.730Z,14.86
2018-08-27T08:23:53.252Z,14.86
2018-08-27T08:26:20.241Z,14.87
2018-08-27T08:28:47.509Z,14.91
2018-08-27T08:31:14.511Z,14.94
2018-08-27T08:33:41.494Z,14.95
2018-08-27T08:36:09.218Z,14.98
2018-08-27T08:38:36.376Z,14.98
2018-08-27T08:41:03.412Z,14.99
2018-08-27T08:43:30.972Z,15.03
2018-08-27T08:45:58.031Z,14.99
2018-08-27T08:48:25.452Z,15.02
2018-08-27T08:50:52.512Z,15.00
2018-08-27T08:53:20.231Z,15.01
2018-08-27T08:55:47.294Z,15.05
2018-08-27T08:58:14.907Z,15.00
2018-08-27T09:00:41.889Z,15.05
2018-08-27T09:03:08.953Z,14.95
2018-08-27T09:05:36.116Z,14.95
2018-08-27T09:08:03.328Z,14.93
2018-08-27T09:10:30.360Z,14.90
2018-08-27T09:12:58.218Z,14.91
2018-08-27T09:15:25.210Z,14.91
2018-08-27T09:17:52.185Z,14.95
2018-08-27T09:20:19.612Z,14.95
2018-08-27T09:22:46.710Z,14.94
2018-08-27T09:25:13.704Z,14.94
2018-08-27T09:27:41.303Z,14.94
2018-08-27T09:30:09.023Z,14.92
2018-08-27T09:32:36.091Z,14.95
2018-08-27T09:35:03.204Z,14.94
2018-08-27T09:37:30.318Z,14.94
2018-08-27T09:39:57.298Z,14.94
2018-08-27T09:42:24.613Z,15.02
2018-08-27T09:44:51.681Z,15.07
2018-08-27T09:47:19.003Z,15.11
2018-08-27T09:49:46.180Z,15.19
2018-08-27T09:52:13.205Z,15.22
2018-08-27T09:54:40.195Z,15.23
2018-08-27T09:57:07.197Z,15.28
2018-08-27T09:59:34.572Z,15.33
2018-08-27T10:02:02.974Z,15.39
2018-08-27T10:04:29.964Z,15.39
2018-08-27T10:06:57.548Z,15.51
2018-08-27T10:09:24.562Z,15.59
2018-08-27T10:11:51.804Z,15.68
2018-08-27T10:14:18.917Z,15.79
2018-08-27T10:16:46.159Z,15.88
2018-08-27T10:19:13.229Z,15.89
2018-08-27T10:21:40.588Z,15.97
2018-08-27T10:24:07.659Z,16.00
2018-08-27T10:26:34.924Z,16.12
2018-08-27T10:29:02.551Z,16.27
2018-08-27T10:31:29.608Z,16.36
2018-08-27T10:33:56.624Z,16.46
2018-08-27T10:36:23.610Z,16.59
2018-08-27T10:38:51.216Z,16.73
2018-08-27T10:41:18.191Z,16.86
2018-08-27T10:43:45.187Z,16.97
2018-08-27T10:46:12.199Z,17.06
2018-08-27T10:48:39.371Z,17.09
2018-08-27T10:51:06.357Z,17.16
2018-08-27T10:53:34.000Z,17.28
2018-08-27T10:56:00.988Z,17.32
2018-08-27T10:58:28.175Z,17.59
2018-08-27T11:00:55.057Z,17.69
2018-08-27T11:03:22.079Z,17.75
2018-08-27T11:05:49.100Z,18.06
2018-08-27T11:08:16.100Z,18.30
2018-08-27T11:10:43.420Z,18.45
2018-08-27T11:13:10.371Z,18.54
2018-08-27T11:15:37.395Z,18.77
2018-08-27T11:18:04.774Z,18.95
2018-08-27T11:20:32.019Z,18.97
2018-08-27T11:22:59.056Z,18.82
2018-08-27T11:25:26.144Z,18.91
2018-08-27T11:27:53.139Z,19.14
2018-08-27T11:30:20.750Z,19.18
2018-08-27T11:32:48.214Z,19.11
2018-08-27T11:35:15.806Z,19.10
2018-08-27T11:37:43.344Z,19.29
2018-08-27T11:40:10.867Z,19.42
2018-08-27T11:42:41.304Z,19.10
2018-08-27T11:45:09.026Z,19.02
2018-08-27T11:47:36.260Z,19.11
2018-08-27T11:50:03.663Z,19.30
2018-08-27T11:52:31.450Z,19.46
2018-08-27T11:54:59.213Z,19.51
2018-08-27T11:57:26.336Z,19.57
2018-08-27T11:59:53.323Z,19.57
2018-08-27T12:02:20.745Z,19.64
2018-08-27T12:04:48.016Z,19.68
2018-08-27T12:07:15.078Z,19.86
2018-08-27T12:09:42.081Z,20.03
2018-08-27T12:12:09.440Z,20.29
2018-08-27T12:14:36.422Z,20.28
2018-08-27T12:17:03.424Z,20.08
2018-08-27T12:19:30.513Z,19.99
2018-08-27T12:21:57.564Z,19.99
2018-08-27T12:24:24.598Z,19.89
2018-08-27T12:26:51.928Z,19.81
2018-08-27T12:29:18.950Z,19.70
2018-08-27T12:31:45.946Z,19.60
2018-08-27T12:34:12.956Z,19.42
2018-08-27T12:36:39.951Z,18.18
2018-08-27T12:39:08.818Z,17.42
2018-08-27T12:41:35.976Z,16.57
2018-08-27T12:44:03.024Z,16.35
2018-08-27T12:46:30.361Z,16.21
2018-08-27T12:48:57.397Z,16.14
2018-08-27T12:51:24.500Z,16.18
2018-08-27T12:53:51.507Z,16.15
2018-08-27T12:56:18.635Z,16.18
2018-08-27T12:58:45.622Z,16.25
2018-08-27T13:01:12.716Z,16.41
2018-08-27T13:03:39.746Z,16.50
2018-08-27T13:06:08.472Z,16.56
2018-08-27T13:08:35.577Z,16.84
2018-08-27T13:11:02.676Z,17.29
2018-08-27T13:13:30.331Z,17.60
2018-08-27T13:15:57.472Z,17.43
2018-08-27T13:18:24.519Z,17.43
2018-08-27T13:20:51.890Z,17.59
2018-08-27T13:23:18.868Z,17.64
2018-08-27T13:25:46.011Z,17.66
2018-08-27T13:28:12.976Z,17.72
2018-08-27T13:30:40.024Z,17.79
2018-08-27T13:33:06.960Z,17.83
2018-08-27T13:35:34.247Z,17.95
2018-08-27T13:38:01.256Z,18.10
2018-08-27T13:40:28.344Z,18.10
2018-08-27T13:42:55.622Z,18.64
2018-08-27T13:45:22.605Z,19.02
2018-08-27T13:47:49.676Z,18.96
2018-08-27T13:50:16.751Z,19.00
2018-08-27T13:52:43.841Z,18.90
2018-08-27T13:55:10.841Z,18.96
2018-08-27T13:57:38.093Z,19.09
2018-08-27T14:00:05.740Z,19.03
2018-08-27T14:02:32.719Z,19.01
2018-08-27T14:04:59.812Z,19.05
2018-08-27T14:07:26.915Z,19.03
2018-08-27T14:09:53.916Z,19.12
2018-08-27T14:12:21.071Z,19.14
2018-08-27T14:14:48.148Z,19.30
2018-08-27T14:17:15.163Z,19.34
2018-08-27T14:19:42.796Z,19.34
2018-08-27T14:22:09.736Z,19.24
2018-08-27T14:24:36.720Z,19.12
2018-08-27T14:27:03.988Z,19.00
2018-08-27T14:29:30.964Z,18.90
2018-08-27T14:31:57.941Z,18.91
2018-08-27T14:34:25.034Z,18.85
2018-08-27T14:36:52.111Z,18.80
2018-08-27T14:39:19.111Z,18.78
2018-08-27T14:41:46.416Z,18.71
2018-08-27T14:44:13.382Z,18.39
2018-08-27T14:46:40.381Z,18.27
2018-08-27T14:49:07.491Z,18.19
2018-08-27T14:51:34.487Z,18.21
2018-08-27T14:54:01.515Z,18.28
2018-08-27T14:56:28.762Z,18.31
2018-08-27T14:58:55.744Z,18.30
2018-08-27T15:01:22.731Z,18.29
2018-08-27T15:03:49.813Z,18.35
2018-08-27T15:06:16.808Z,18.24
2018-08-27T15:08:43.791Z,18.23
2018-08-27T15:11:11.160Z,18.20
2018-08-27T15:13:38.147Z,18.27
2018-08-27T15:16:05.352Z,18.29
2018-08-27T15:18:32.323Z,18.25
2018-08-27T15:20:59.385Z,18.25
2018-08-27T15:23:26.474Z,18.28
2018-08-27T15:25:53.844Z,18.21
2018-08-27T15:28:20.852Z,18.20
2018-08-27T15:30:47.828Z,18.17
2018-08-27T15:33:14.912Z,18.24
2018-08-27T15:35:41.899Z,18.12
2018-08-27T15:38:08.904Z,18.08
2018-08-27T15:40:35.890Z,18.00
2018-08-27T15:43:02.882Z,17.76
2018-08-27T15:45:35.936Z,17.54
2018-08-27T15:48:02.947Z,17.35
2018-08-27T15:50:30.028Z,17.17
2018-08-27T15:52:57.157Z,17.14
2018-08-27T15:55:24.215Z,17.17
2018-08-27T15:57:51.188Z,17.24
2018-08-27T16:00:18.330Z,17.35
2018-08-27T16:02:45.396Z,17.50
2018-08-27T16:05:12.390Z,17.62
2018-08-27T16:07:39.784Z,17.71
2018-08-27T16:10:06.784Z,17.77
2018-08-27T16:12:33.775Z,17.85
2018-08-27T16:15:00.791Z,17.88
2018-08-27T16:17:27.777Z,17.98
2018-08-27T16:19:54.852Z,17.93
2018-08-27T16:22:22.171Z,18.01
2018-08-27T16:24:49.282Z,18.07
2018-08-27T16:27:16.252Z,18.05
2018-08-27T16:29:43.312Z,18.07
2018-08-27T16:32:10.347Z,18.11
2018-08-27T16:34:37.413Z,18.11
2018-08-27T16:37:04.424Z,18.00
2018-08-27T16:39:31.523Z,18.03
2018-08-27T16:41:58.444Z,18.03
2018-08-27T16:44:25.474Z,18.03
2018-08-27T16:46:52.547Z,18.03
2018-08-27T16:49:19.534Z,17.97
2018-08-27T16:51:46.943Z,17.91
2018-08-27T16:54:13.931Z,17.92
2018-08-27T16:56:40.904Z,17.95
2018-08-27T16:59:08.307Z,17.94
2018-08-27T17:01:35.300Z,17.91
2018-08-27T17:04:02.515Z,17.90
2018-08-27T17:06:29.511Z,17.81
2018-08-27T17:08:56.488Z,17.77
2018-08-27T17:11:23.556Z,17.69
2018-08-27T17:13:50.909Z,17.75
2018-08-27T17:16:17.904Z,17.74
2018-08-27T17:18:44.891Z,17.69
2018-08-27T17:21:11.907Z,17.70
2018-08-27T17:23:38.903Z,17.68
2018-08-27T17:26:05.940Z,17.61
2018-08-27T17:28:32.973Z,17.55
2018-08-27T17:31:00.041Z,17.52
2018-08-27T17:33:27.020Z,17.49
2018-08-27T17:35:54.020Z,17.41
2018-08-27T17:38:21.106Z,17.38
2018-08-27T17:40:48.103Z,17.32
2018-08-27T17:43:15.140Z,17.24
2018-08-27T17:45:42.295Z,17.26
2018-08-27T17:48:09.276Z,17.21
2018-08-27T17:50:36.431Z,17.20
2018-08-27T17:53:03.408Z,17.12
2018-08-27T17:55:30.408Z,17.16
2018-08-27T17:57:57.410Z,17.09
2018-08-27T18:00:24.393Z,17.09
2018-08-27T18:02:51.432Z,17.00
2018-08-27T18:05:18.508Z,16.98
2018-08-27T18:07:45.536Z,17.01
2018-08-27T18:10:12.873Z,16.96
2018-08-27T18:12:39.864Z,16.91
2018-08-27T18:15:08.127Z,16.89
2018-08-27T18:17:35.455Z,16.83
2018-08-27T18:20:02.661Z,16.78
2018-08-27T18:22:29.738Z,16.73
2018-08-27T18:24:56.831Z,16.73
2018-08-27T18:27:23.807Z,16.68
2018-08-27T18:29:50.795Z,16.64
2018-08-27T18:32:18.231Z,16.62
2018-08-27T18:34:45.260Z,16.59
2018-08-27T18:37:12.308Z,16.52
2018-08-27T18:39:39.324Z,16.48
2018-08-27T18:42:06.411Z,16.47
2018-08-27T18:44:33.404Z,16.44
2018-08-27T18:47:00.717Z,16.48
2018-08-27T18:49:27.696Z,16.39
2018-08-27T18:51:54.680Z,16.34
2018-08-27T18:54:21.798Z,16.37
2018-08-27T18:56:48.857Z,16.32
2018-08-27T18:59:15.948Z,16.31
2018-08-27T19:01:43.841Z,16.22
2018-08-27T19:04:11.169Z,16.24
2018-08-27T19:06:38.185Z,16.11
2018-08-27T19:09:06.398Z,16.09
2018-08-27T19:11:33.672Z,16.17
2018-08-27T19:14:00.655Z,16.03
2018-08-27T19:16:27.763Z,16.05
2018-08-27T19:18:55.181Z,16.03
2018-08-27T19:21:22.159Z,15.90
2018-08-27T19:23:49.136Z,15.91
2018-08-27T19:26:16.227Z,15.86
2018-08-27T19:28:43.204Z,15.81
2018-08-27T19:31:10.294Z,15.79
2018-08-27T19:33:37.423Z,15.80
2018-08-27T19:36:04.583Z,15.69
2018-08-27T19:38:31.512Z,15.76
2018-08-27T19:40:58.624Z,15.73
2018-08-27T19:43:25.602Z,15.72
2018-08-27T19:45:52.718Z,15.64
2018-08-27T19:48:19.972Z,15.65
2018-08-27T19:50:46.953Z,15.51
2018-08-27T19:53:14.111Z,15.50
2018-08-27T19:55:41.137Z,15.46
2018-08-27T19:58:08.128Z,15.50
2018-08-27T20:00:35.107Z,15.36
2018-08-27T20:03:02.096Z,15.29
2018-08-27T20:05:29.161Z,15.31
2018-08-27T20:07:56.149Z,15.27
2018-08-27T20:10:23.129Z,15.22
2018-08-27T20:12:50.217Z,15.16
2018-08-27T20:15:17.224Z,15.17
2018-08-27T20:17:44.300Z,15.15
2018-08-27T20:20:11.391Z,15.12
2018-08-27T20:22:38.395Z,15.15
2018-08-27T20:25:05.512Z,15.06
2018-08-27T20:27:32.584Z,15.00
2018-08-27T20:29:59.580Z,15.10
2018-08-27T20:32:26.652Z,15.01
2018-08-27T20:34:53.725Z,15.11
2018-08-27T20:37:21.016Z,14.95
2018-08-27T20:39:48.116Z,14.88
2018-08-27T20:42:15.005Z,14.82
2018-08-27T20:44:42.060Z,14.84
2018-08-27T20:47:09.123Z,14.80
2018-08-27T20:49:36.102Z,14.77
2018-08-27T20:52:03.120Z,14.82
2018-08-27T20:54:30.217Z,14.85
2018-08-27T20:56:57.364Z,14.80
2018-08-27T20:59:24.302Z,14.73
2018-08-27T21:01:51.275Z,14.71
2018-08-27T21:04:18.283Z,14.70
2018-08-27T21:06:45.271Z,14.67
2018-08-27T21:09:12.266Z,14.64
2018-08-27T21:11:39.323Z,14.62
2018-08-27T21:14:16.431Z,14.60
2018-08-27T21:16:43.500Z,14.55
2018-08-27T21:19:10.481Z,14.54
2018-08-27T21:21:37.915Z,14.51
2018-08-27T21:24:04.980Z,14.49
2018-08-27T21:26:32.039Z,14.47
2018-08-27T21:28:59.080Z,14.43
2018-08-27T21:31:26.133Z,14.42
2018-08-27T21:33:53.050Z,14.36
2018-08-27T21:36:20.063Z,14.36
2018-08-27T21:38:47.228Z,14.33
2018-08-27T21:41:14.211Z,14.28
2018-08-27T21:43:41.230Z,14.26
2018-08-27T21:48:42.052Z,14.21
2018-08-27T21:51:09.055Z,14.17
2018-08-27T21:53:36.052Z,14.17
2018-08-27T21:56:03.131Z,14.14
2018-08-27T21:58:30.198Z,14.18
2018-08-27T22:00:57.245Z,14.14
2018-08-27T22:03:29.899Z,14.13
2018-08-27T22:05:56.875Z,14.12
2018-08-27T22:08:24.184Z,14.10
2018-08-27T22:10:51.176Z,14.10
2018-08-27T22:13:18.288Z,14.04
2018-08-27T22:15:45.343Z,14.04
2018-08-27T22:18:12.575Z,14.03
2018-08-27T22:20:39.643Z,14.02
2018-08-27T22:23:06.696Z,14.01
2018-08-27T22:25:33.691Z,14.01
2018-08-27T22:28:00.747Z,14.00
2018-08-27T22:30:27.728Z,13.97
2018-08-27T22:32:55.168Z,13.95
2018-08-27T22:35:22.156Z,13.95
2018-08-27T22:37:49.216Z,13.92
2018-08-27T22:40:16.692Z,13.90
2018-08-27T22:42:43.745Z,13.88
2018-08-27T22:45:10.733Z,13.86
2018-08-27T22:47:37.775Z,13.86
2018-08-27T22:50:04.967Z,13.87
2018-08-27T22:52:31.992Z,13.83
2018-08-27T22:54:58.972Z,13.83
2018-08-27T22:57:25.960Z,13.78
2018-08-27T22:59:53.030Z,13.77
2018-08-27T23:02:25.995Z,13.73
2018-08-27T23:04:57.669Z,13.72
2018-08-27T23:07:24.956Z,13.68
2018-08-27T23:09:51.943Z,13.68
2018-08-27T23:12:18.947Z,13.65
2018-08-27T23:14:45.944Z,13.65
2018-08-27T23:17:13.003Z,13.64
2018-08-27T23:19:40.095Z,13.66
2018-08-27T23:22:07.080Z,13.70
2018-08-27T23:24:34.078Z,13.67
2018-08-27T23:27:01.129Z,13.70
2018-08-27T23:29:28.100Z,13.73
2018-08-27T23:31:55.206Z,13.72
2018-08-27T23:34:22.263Z,13.74
2018-08-27T23:36:49.423Z,13.75
2018-08-27T23:39:16.419Z,13.76
2018-08-27T23:41:43.397Z,13.74
2018-08-27T23:44:10.383Z,13.80
2018-08-27T23:46:37.876Z,13.81
2018-08-27T23:49:05.393Z,13.80
2018-08-27T23:51:32.395Z,13.83
2018-08-27T23:53:59.368Z,13.83
2018-08-27T23:56:26.515Z,13.84
2018-08-27T23:58:53.806Z,13.83
